createdAt,value
2018-09-02T00:02:01.132Z,1.97
2018-09-02T00:04:30.003Z,1.73
2018-09-02T00:06:58.910Z,2.37
2018-09-02T00:09:27.911Z,1.70
2018-09-02T00:11:56.769Z,1.70
2018-09-02T00:14:25.717Z,1.80
2018-09-02T00:16:54.638Z,1.60
2018-09-02T00:19:23.465Z,1.90
2018-09-02T00:21:52.336Z,2.27
2018-09-02T00:24:21.241Z,1.50
2018-09-02T00:26:50.091Z,1.70
2018-09-02T00:29:18.986Z,1.57
2018-09-02T00:31:47.852Z,2.00
2018-09-02T00:34:16.696Z,1.93
2018-09-02T00:36:45.609Z,1.87
2018-09-02T00:39:14.503Z,1.90
2018-09-02T00:41:43.429Z,1.77
2018-09-02T00:44:12.345Z,1.70
2018-09-02T00:46:41.805Z,1.97
2018-09-02T00:49:10.687Z,1.60
2018-09-02T00:51:40.021Z,1.73
2018-09-02T00:54:08.936Z,1.80
2018-09-02T00:56:37.942Z,2.23
2018-09-02T00:59:06.790Z,4.13
2018-09-02T01:01:35.713Z,2.33
2018-09-02T01:04:04.616Z,1.90
2018-09-02T01:06:33.507Z,1.90
2018-09-02T01:09:02.355Z,3.07
2018-09-02T01:11:31.727Z,2.63
2018-09-02T01:14:00.651Z,1.77
2018-09-02T01:16:29.530Z,2.40
2018-09-02T01:18:58.421Z,3.33
2018-09-02T01:21:27.274Z,3.23
2018-09-02T01:23:56.126Z,1.80
2018-09-02T01:26:24.980Z,2.13
2018-09-02T01:28:53.973Z,3.30
2018-09-02T01:31:22.937Z,2.10
2018-09-02T01:33:51.789Z,2.47
2018-09-02T01:36:20.656Z,2.30
2018-09-02T01:38:49.511Z,2.30
2018-09-02T01:41:18.368Z,2.33
2018-09-02T01:43:47.261Z,3.00
2018-09-02T01:46:16.191Z,2.37
2018-09-02T01:48:45.090Z,2.67
2018-09-02T01:51:14.024Z,2.70
2018-09-02T01:53:42.972Z,3.30
2018-09-02T01:56:11.917Z,2.52
2018-09-02T01:58:40.843Z,2.10
2018-09-02T02:01:09.696Z,3.33
2018-09-02T02:03:39.016Z,1.97
2018-09-02T02:06:07.978Z,1.90
2018-09-02T02:08:36.839Z,2.27
2018-09-02T02:11:05.422Z,2.50
2018-09-02T02:13:34.206Z,2.20
2018-09-02T02:16:03.110Z,1.93
2018-09-02T02:18:31.975Z,2.23
2018-09-02T02:21:00.914Z,3.07
2018-09-02T02:23:29.743Z,2.17
2018-09-02T02:25:58.622Z,2.10
2018-09-02T02:28:28.869Z,2.50
2018-09-02T02:30:58.384Z,2.00
2018-09-02T02:33:26.997Z,2.40
2018-09-02T02:35:55.536Z,2.10
2018-09-02T02:38:24.092Z,2.20
2018-09-02T02:40:52.621Z,2.77
2018-09-02T02:43:21.131Z,2.30
2018-09-02T02:45:49.684Z,2.13
2018-09-02T02:48:18.218Z,4.47
2018-09-02T02:50:46.737Z,3.27
2018-09-02T02:53:15.297Z,2.17
2018-09-02T02:55:43.873Z,2.20
2018-09-02T02:58:12.464Z,2.17
2018-09-02T03:00:40.984Z,2.37
2018-09-02T03:03:09.529Z,2.60
2018-09-02T03:05:38.027Z,2.20
2018-09-02T03:08:06.701Z,2.20
2018-09-02T03:10:35.243Z,2.77
2018-09-02T03:13:04.399Z,2.50
2018-09-02T03:15:33.227Z,5.93
2018-09-02T03:18:02.074Z,3.50
2018-09-02T03:20:30.927Z,3.20
2018-09-02T03:22:59.587Z,2.40
2018-09-02T03:25:28.150Z,2.97
2018-09-02T03:27:56.723Z,4.20
2018-09-02T03:30:25.292Z,3.70
2018-09-02T03:32:54.553Z,3.87
2018-09-02T03:35:23.039Z,6.57
2018-09-02T03:37:51.818Z,4.47
2018-09-02T03:40:20.746Z,5.80
2018-09-02T03:42:49.643Z,3.80
2018-09-02T03:45:18.549Z,2.95
2018-09-02T03:47:47.426Z,4.43
2018-09-02T03:50:16.389Z,2.90
2018-09-02T03:52:45.015Z,2.73
2018-09-02T03:55:13.900Z,3.47
2018-09-02T03:57:42.750Z,4.30
2018-09-02T04:00:11.745Z,3.77
2018-09-02T04:02:40.645Z,6.20
2018-09-02T04:05:09.508Z,3.87
2018-09-02T04:07:38.371Z,6.97
2018-09-02T04:10:07.329Z,4.07
2018-09-02T04:12:36.213Z,6.30
2018-09-02T04:15:05.792Z,6.03
2018-09-02T04:17:34.672Z,4.50
2018-09-02T04:20:05.550Z,5.90
2018-09-02T04:22:34.500Z,7.10
2018-09-02T04:25:03.833Z,6.40
2018-09-02T04:27:32.718Z,7.17
2018-09-02T04:30:01.678Z,6.57
2018-09-02T04:32:30.492Z,4.27
2018-09-02T04:34:59.612Z,6.10
2018-09-02T04:37:28.523Z,7.90
2018-09-02T04:39:57.404Z,6.47
2018-09-02T04:42:26.297Z,6.07
2018-09-02T04:44:55.287Z,8.03
2018-09-02T04:47:24.200Z,6.60
2018-09-02T04:49:53.184Z,5.97
2018-09-02T04:52:22.062Z,7.23
2018-09-02T04:54:50.914Z,4.50
2018-09-02T04:57:19.879Z,4.93
2018-09-02T04:59:49.295Z,5.90
2018-09-02T05:02:18.262Z,7.93
2018-09-02T05:04:47.173Z,4.40
2018-09-02T05:07:16.879Z,8.33
2018-09-02T05:09:46.860Z,6.33
2018-09-02T05:12:15.813Z,5.10
2018-09-02T05:14:44.974Z,6.77
2018-09-02T05:17:13.861Z,4.23
2018-09-02T05:19:42.774Z,8.23
2018-09-02T05:22:11.892Z,7.37
2018-09-02T05:24:40.829Z,6.60
2018-09-02T05:27:10.034Z,7.20
2018-09-02T05:29:39.047Z,8.23
2018-09-02T05:32:08.454Z,7.40
2018-09-02T05:34:37.579Z,8.23
2018-09-02T05:37:06.901Z,7.77
2018-09-02T05:39:35.776Z,7.47
2018-09-02T05:42:04.804Z,7.92
2018-09-02T05:44:35.360Z,7.80
2018-09-02T05:47:04.777Z,8.47
2018-09-02T05:49:33.974Z,9.83
2018-09-02T05:52:03.014Z,8.87
2018-09-02T05:54:31.846Z,8.73
2018-09-02T05:57:00.882Z,8.93
2018-09-02T05:59:29.761Z,8.30
2018-09-02T06:01:58.767Z,9.17
2018-09-02T06:04:28.312Z,8.30
2018-09-02T06:06:57.213Z,8.43
2018-09-02T06:09:26.311Z,9.67
2018-09-02T06:11:55.304Z,9.93
2018-09-02T06:14:24.298Z,9.33
2018-09-02T06:16:53.456Z,9.23
2018-09-02T06:19:22.451Z,8.43
2018-09-02T06:21:51.352Z,8.20
2018-09-02T06:24:20.279Z,9.10
2018-09-02T06:26:49.172Z,9.57
2018-09-02T06:29:18.060Z,10.87
2018-09-02T06:31:46.989Z,11.03
2018-09-02T06:34:15.857Z,10.33
2018-09-02T06:36:45.237Z,9.03
2018-09-02T06:39:14.079Z,8.53
2018-09-02T06:41:43.507Z,10.67
2018-09-02T06:44:12.621Z,10.90
2018-09-02T06:46:41.488Z,10.57
2018-09-02T06:49:10.546Z,10.57
2018-09-02T06:51:40.507Z,10.60
2018-09-02T06:54:09.446Z,10.47
2018-09-02T06:56:38.324Z,9.53
2018-09-02T06:59:07.210Z,10.37
2018-09-02T07:01:36.503Z,7.70
2018-09-02T07:04:05.442Z,10.67
2018-09-02T07:06:34.459Z,9.20
2018-09-02T07:09:03.897Z,10.20
2018-09-02T07:11:33.104Z,8.97
2018-09-02T07:14:02.039Z,10.70
2018-09-02T07:16:31.038Z,10.30
2018-09-02T07:19:00.384Z,10.03
2018-09-02T07:21:29.385Z,10.00
2018-09-02T07:23:58.496Z,9.63
2018-09-02T07:26:27.469Z,9.23
2018-09-02T07:28:56.369Z,8.87
2018-09-02T07:31:25.286Z,9.33
2018-09-02T07:33:54.588Z,7.27
2018-09-02T07:36:23.459Z,10.07
2018-09-02T07:38:52.349Z,9.17
2018-09-02T07:41:21.284Z,10.30
2018-09-02T07:43:50.707Z,9.53
2018-09-02T07:46:19.908Z,9.87
2018-09-02T07:49:06.708Z,8.77
2018-09-02T07:51:40.246Z,9.17
2018-09-02T07:54:10.331Z,6.90
2018-09-02T07:56:39.163Z,8.37
2018-09-02T07:59:08.025Z,8.87
2018-09-02T08:01:36.914Z,7.60
2018-09-02T08:04:05.884Z,7.83
2018-09-02T08:06:34.834Z,8.33
2018-09-02T08:09:05.557Z,7.93
2018-09-02T08:11:34.417Z,6.90
2018-09-02T08:14:03.291Z,7.00
2018-09-02T08:16:32.180Z,7.17
2018-09-02T08:19:01.034Z,6.73
2018-09-02T08:21:30.010Z,9.27
2018-09-02T08:24:07.276Z,6.87
2018-09-02T08:26:36.391Z,6.67
2018-09-02T08:29:05.295Z,5.97
2018-09-02T08:31:34.169Z,6.20
2018-09-02T08:34:02.984Z,5.33
2018-09-02T08:36:32.028Z,4.40
2018-09-02T08:39:00.876Z,4.60
2018-09-02T08:41:29.719Z,3.80
2018-09-02T08:43:58.563Z,3.93
2018-09-02T08:46:27.492Z,4.03
2018-09-02T08:48:56.339Z,3.10
2018-09-02T08:51:25.239Z,3.10
2018-09-02T08:53:54.126Z,3.20
2018-09-02T08:56:23.102Z,2.90
2018-09-02T08:58:51.956Z,3.40
2018-09-02T09:01:21.222Z,2.93
2018-09-02T09:03:50.106Z,2.90
2018-09-02T09:06:19.017Z,2.80
2018-09-02T09:08:48.181Z,3.10
2018-09-02T09:11:16.820Z,2.63
2018-09-02T09:13:45.704Z,2.80
2018-09-02T09:16:14.658Z,2.53
2018-09-02T09:18:44.980Z,2.17
2018-09-02T09:21:14.774Z,2.60
2018-09-02T09:23:43.641Z,2.40
2018-09-02T09:26:12.622Z,2.67
2018-09-02T09:28:42.153Z,2.80
2018-09-02T09:31:11.095Z,1.70
2018-09-02T09:33:41.161Z,2.30
2018-09-02T09:36:10.485Z,2.60
2018-09-02T09:38:39.589Z,2.20
2018-09-02T09:41:09.784Z,1.93
2018-09-02T09:43:40.078Z,2.17
2018-09-02T09:46:09.985Z,2.62
2018-09-02T09:48:38.899Z,2.23
2018-09-02T09:51:07.483Z,2.17
2018-09-02T09:53:36.240Z,2.20
2018-09-02T09:56:05.133Z,1.80
2018-09-02T09:58:34.281Z,1.83
2018-09-02T10:01:03.168Z,1.90
2018-09-02T10:03:32.126Z,2.17
2018-09-02T10:06:01.029Z,1.80
2018-09-02T10:08:31.110Z,1.90
2018-09-02T10:11:00.031Z,2.23
2018-09-02T10:13:29.550Z,2.17
2018-09-02T10:15:58.455Z,2.40
2018-09-02T10:18:27.371Z,2.40
2018-09-02T10:20:56.912Z,2.40
2018-09-02T10:23:26.768Z,1.87
2018-09-02T10:25:55.657Z,2.23
2018-09-02T10:28:24.648Z,1.73
2018-09-02T10:30:54.101Z,2.23
2018-09-02T10:33:23.088Z,1.87
2018-09-02T10:35:52.240Z,1.70
2018-09-02T10:38:21.164Z,2.10
2018-09-02T10:40:50.019Z,1.70
2018-09-02T10:43:19.263Z,1.90
2018-09-02T10:45:48.542Z,1.80
2018-09-02T10:48:17.409Z,2.13
2018-09-02T10:50:47.071Z,1.80
2018-09-02T10:53:16.218Z,2.30
2018-09-02T10:55:45.089Z,1.63
2018-09-02T11:00:53.831Z,1.90
2018-09-02T11:03:23.652Z,1.80
2018-09-02T11:05:57.386Z,1.90
2018-09-02T11:08:26.541Z,2.10
2018-09-02T11:10:56.528Z,1.57
2018-09-02T11:13:25.356Z,2.27
2018-09-02T11:15:54.180Z,1.80
2018-09-02T11:18:22.951Z,2.37
2018-09-02T11:20:51.988Z,2.33
2018-09-02T11:23:20.892Z,2.10
2018-09-02T11:25:49.746Z,1.73
2018-09-02T11:28:18.941Z,1.93
2018-09-02T11:30:48.444Z,3.13
2018-09-02T11:33:17.295Z,1.67
2018-09-02T11:35:45.860Z,1.87
2018-09-02T11:38:14.375Z,1.60
2018-09-02T11:40:42.950Z,1.70
2018-09-02T11:43:11.461Z,1.57
2018-09-02T11:45:39.967Z,2.07
2018-09-02T11:48:08.540Z,1.83
2018-09-02T11:50:37.153Z,1.90
2018-09-02T11:53:05.723Z,1.70
2018-09-02T11:55:34.301Z,1.73
2018-09-02T11:58:02.788Z,1.57
2018-09-02T12:00:31.279Z,1.60
2018-09-02T12:02:59.841Z,1.87
2018-09-02T12:05:28.355Z,1.80
2018-09-02T12:07:56.882Z,1.60
2018-09-02T12:10:25.470Z,1.43
2018-09-02T12:12:54.010Z,1.67
2018-09-02T12:15:22.681Z,1.70
2018-09-02T12:17:51.197Z,1.80
2018-09-02T12:20:19.708Z,1.50
2018-09-02T12:22:48.276Z,2.00
2018-09-02T12:25:16.810Z,2.17
2018-09-02T12:27:45.314Z,1.83
2018-09-02T12:30:14.155Z,1.73
2018-09-02T12:32:42.731Z,1.40
2018-09-02T12:35:11.302Z,1.60
2018-09-02T12:37:39.791Z,1.60
2018-09-02T12:40:08.491Z,1.90
2018-09-02T12:42:37.031Z,1.73
2018-09-02T12:45:05.896Z,1.63
2018-09-02T12:47:34.653Z,1.50
2018-09-02T12:50:03.980Z,1.50
2018-09-02T12:52:32.512Z,1.20
2018-09-02T12:55:01.048Z,1.97
2018-09-02T12:57:29.591Z,1.47
2018-09-02T12:59:58.276Z,1.70
2018-09-02T13:02:26.824Z,1.30
2018-09-02T13:04:55.540Z,1.50
2018-09-02T13:07:24.063Z,1.83
2018-09-02T13:09:52.581Z,1.30
2018-09-02T13:12:21.152Z,1.60
2018-09-02T13:14:49.685Z,1.50
2018-09-02T13:17:18.231Z,1.60
2018-09-02T13:19:46.748Z,1.00
2018-09-02T13:22:15.275Z,1.27
2018-09-02T13:24:44.162Z,1.90
2018-09-02T13:27:12.569Z,1.80
2018-09-02T13:29:41.096Z,1.40
2018-09-02T13:32:09.607Z,1.83
2018-09-02T13:34:38.185Z,1.53
2018-09-02T13:37:06.690Z,1.40
2018-09-02T13:39:35.186Z,1.50
2018-09-02T13:42:04.412Z,1.60
2018-09-02T13:44:32.995Z,1.47
2018-09-02T13:47:01.903Z,1.90
2018-09-02T13:49:30.589Z,1.50
2018-09-02T13:51:59.466Z,1.60
2018-09-02T13:54:28.044Z,1.60
2018-09-02T13:56:56.572Z,1.40
2018-09-02T13:59:25.085Z,1.93
2018-09-02T14:01:53.605Z,1.57
2018-09-02T14:04:22.137Z,1.60
2018-09-02T14:06:50.675Z,2.30
2018-09-02T14:09:19.255Z,1.80
2018-09-02T14:11:47.779Z,2.10
2018-09-02T14:14:16.385Z,1.50
2018-09-02T14:16:45.118Z,1.87
2018-09-02T14:19:13.745Z,1.60
2018-09-02T14:21:42.639Z,1.80
2018-09-02T14:24:11.192Z,1.33
2018-09-02T14:26:39.736Z,2.07
2018-09-02T14:29:08.264Z,1.77
2018-09-02T14:31:36.807Z,1.47
2018-09-02T14:34:05.678Z,1.63
2018-09-02T14:36:34.335Z,1.90
2018-09-02T14:39:05.357Z,1.90
2018-09-02T14:41:33.819Z,2.20
2018-09-02T14:44:02.559Z,1.60
2018-09-02T14:46:30.976Z,1.60
2018-09-02T14:48:59.570Z,1.80
2018-09-02T14:51:28.398Z,1.80
2018-09-02T14:53:56.916Z,1.63
2018-09-02T14:56:25.433Z,1.77
2018-09-02T14:58:53.923Z,2.30
2018-09-02T15:01:22.540Z,2.00
2018-09-02T15:03:51.089Z,1.77
2018-09-02T15:06:19.604Z,2.43
2018-09-02T15:08:48.143Z,1.90
2018-09-02T15:11:16.774Z,1.60
2018-09-02T15:13:45.267Z,2.13
2018-09-02T15:16:13.781Z,1.60
2018-09-02T15:18:42.282Z,1.97
2018-09-02T15:21:10.851Z,1.40
2018-09-02T15:23:39.628Z,1.87
2018-09-02T15:26:08.142Z,2.47
2018-09-02T15:28:36.732Z,2.03
2018-09-02T15:31:05.248Z,1.97
2018-09-02T15:33:33.989Z,2.27
2018-09-02T15:36:02.511Z,2.07
2018-09-02T15:38:31.023Z,2.00
2018-09-02T15:41:00.353Z,1.70
2018-09-02T15:43:29.337Z,2.07
2018-09-02T15:45:57.830Z,1.50
2018-09-02T15:48:26.331Z,1.70
2018-09-02T15:50:54.864Z,1.63
2018-09-02T15:53:23.429Z,2.20
2018-09-02T15:55:51.995Z,1.83
2018-09-02T15:58:20.542Z,2.00
2018-09-02T16:00:49.144Z,1.60
2018-09-02T16:03:17.640Z,1.80
2018-09-02T16:05:46.158Z,1.40
2018-09-02T16:08:14.699Z,1.97
2018-09-02T16:10:44.120Z,1.70
2018-09-02T16:13:12.626Z,2.07
2018-09-02T16:15:41.124Z,1.43
2018-09-02T16:18:09.757Z,1.90
2018-09-02T16:20:38.212Z,1.70
2018-09-02T16:23:06.711Z,1.60
2018-09-02T16:25:35.217Z,1.73
2018-09-02T16:28:04.495Z,2.13
2018-09-02T16:30:32.993Z,1.80
2018-09-02T16:33:01.493Z,1.87
2018-09-02T16:35:30.010Z,2.10
2018-09-02T16:37:58.529Z,1.77
2018-09-02T16:40:27.514Z,1.60
2018-09-02T16:42:56.098Z,1.70
2018-09-02T16:45:24.603Z,2.20
2018-09-02T16:47:53.110Z,1.90
2018-09-02T16:50:21.943Z,2.20
2018-09-02T16:52:50.894Z,1.63
2018-09-02T16:55:19.793Z,1.90
2018-09-02T16:57:48.628Z,1.60
2018-09-02T17:00:17.480Z,5.70
2018-09-02T17:02:46.461Z,2.10
2018-09-02T17:05:18.601Z,1.93
2018-09-02T17:07:47.635Z,2.03
2018-09-02T17:10:16.552Z,1.93
2018-09-02T17:12:45.529Z,2.17
2018-09-02T17:15:14.339Z,2.30
2018-09-02T17:17:43.217Z,1.80
2018-09-02T17:20:15.848Z,2.23
2018-09-02T17:22:44.736Z,2.03
2018-09-02T17:25:13.770Z,1.97
2018-09-02T17:27:42.768Z,2.10
2018-09-02T17:30:11.725Z,2.27
2018-09-02T17:32:40.620Z,1.83
2018-09-02T17:35:09.747Z,1.90
2018-09-02T17:37:38.753Z,2.07
2018-09-02T17:40:07.720Z,2.27
2018-09-02T17:42:36.623Z,2.13
2018-09-02T17:45:05.783Z,1.77
2018-09-02T17:47:34.631Z,1.87
2018-09-02T17:50:03.475Z,2.10
2018-09-02T17:52:32.336Z,2.20
2018-09-02T17:55:01.227Z,2.00
2018-09-02T17:57:30.147Z,2.00
2018-09-02T17:59:59.028Z,2.10
2018-09-02T18:02:27.952Z,1.73
2018-09-02T18:04:56.737Z,1.60
2018-09-02T18:07:25.598Z,1.97
2018-09-02T18:09:54.688Z,2.07
2018-09-02T18:12:23.611Z,1.70
2018-09-02T18:14:52.479Z,1.97
2018-09-02T18:17:21.794Z,1.90
2018-09-02T18:19:50.651Z,2.27
2018-09-02T18:22:19.896Z,2.30
2018-09-02T18:24:48.780Z,2.00
2018-09-02T18:27:19.851Z,1.97
2018-09-02T18:29:54.327Z,1.90
2018-09-02T18:32:23.207Z,1.90
2018-09-02T18:34:52.173Z,1.53
2018-09-02T18:37:21.043Z,2.17
2018-09-02T18:39:49.982Z,1.90
2018-09-02T18:42:18.928Z,1.97
2018-09-02T18:44:47.799Z,1.97
2018-09-02T18:47:16.659Z,2.00
2018-09-02T18:49:46.184Z,2.03
2018-09-02T18:52:15.696Z,2.20
2018-09-02T18:54:44.613Z,2.20
2018-09-02T18:57:13.529Z,2.47
2018-09-02T18:59:42.415Z,2.40
2018-09-02T19:02:11.501Z,1.93
2018-09-02T19:04:40.402Z,2.10
2018-09-02T19:07:09.267Z,2.00
2018-09-02T19:09:38.787Z,2.17
2018-09-02T19:12:08.516Z,2.17
2018-09-02T19:14:37.684Z,2.50
2018-09-02T19:17:06.586Z,2.40
2018-09-02T19:19:35.429Z,2.10
2018-09-02T19:22:04.328Z,2.50
2018-09-02T19:24:33.692Z,2.03
2018-09-02T19:27:02.564Z,2.10
2018-09-02T19:29:32.069Z,2.63
2018-09-02T19:32:01.049Z,2.53
2018-09-02T19:34:29.872Z,2.40
2018-09-02T19:36:58.703Z,2.37
2018-09-02T19:39:27.580Z,2.50
2018-09-02T19:41:56.377Z,2.27
2018-09-02T19:44:25.265Z,2.37
2018-09-02T19:46:55.089Z,2.60
2018-09-02T19:49:24.508Z,2.73
2018-09-02T19:51:53.342Z,2.53
2018-09-02T19:54:22.196Z,2.30
2018-09-02T19:56:51.027Z,2.40
2018-09-02T19:59:19.849Z,2.02
2018-09-02T20:01:48.727Z,3.40
2018-09-02T20:04:17.558Z,3.10
2018-09-02T20:06:46.386Z,3.03
2018-09-02T20:09:15.311Z,2.83
2018-09-02T20:11:44.178Z,2.70
2018-09-02T20:14:13.391Z,2.63
2018-09-02T20:16:42.231Z,2.90
2018-09-02T20:19:11.164Z,4.57
2018-09-02T20:21:39.968Z,4.97
2018-09-02T20:24:09.042Z,2.77
2018-09-02T20:26:37.949Z,3.60
2018-09-02T20:29:06.880Z,2.90
2018-09-02T20:31:35.805Z,2.70
2018-09-02T20:34:04.843Z,3.20
2018-09-02T20:36:33.677Z,3.30
2018-09-02T20:39:02.521Z,2.90
2018-09-02T20:41:31.405Z,2.20
2018-09-02T20:44:00.259Z,3.70
2018-09-02T20:46:29.080Z,2.93
2018-09-02T20:48:57.915Z,3.30
2018-09-02T20:51:26.771Z,3.47
2018-09-02T20:53:55.849Z,3.20
2018-09-02T20:56:25.055Z,3.77
2018-09-02T20:58:54.181Z,3.30
2018-09-02T21:01:23.307Z,3.63
2018-09-02T21:03:52.457Z,4.17
2018-09-02T21:06:21.399Z,3.40
2018-09-02T21:08:50.267Z,3.70
2018-09-02T21:11:19.179Z,5.47
2018-09-02T21:13:48.069Z,3.67
2018-09-02T21:16:16.990Z,3.60
2018-09-02T21:18:45.889Z,3.83
2018-09-02T21:21:14.831Z,3.37
2018-09-02T21:23:43.739Z,2.90
2018-09-02T21:26:12.608Z,3.57
2018-09-02T21:28:41.530Z,3.20
2018-09-02T21:31:10.322Z,3.30
2018-09-02T21:33:39.545Z,3.80
2018-09-02T21:36:08.461Z,3.30
2018-09-02T21:38:37.388Z,3.67
2018-09-02T21:41:06.199Z,2.93
2018-09-02T21:43:35.033Z,4.80
2018-09-02T21:46:04.536Z,4.62
2018-09-02T21:48:33.417Z,4.03
2018-09-02T21:51:02.577Z,3.40
2018-09-02T21:53:31.526Z,5.13
2018-09-02T21:56:00.383Z,3.90
2018-09-02T21:58:29.299Z,3.30
2018-09-02T22:00:58.161Z,3.07
2018-09-02T22:03:27.838Z,2.77
2018-09-02T22:05:56.716Z,4.03
2018-09-02T22:08:25.587Z,2.93
2018-09-02T22:10:54.452Z,3.33
2018-09-02T22:13:23.443Z,3.10
2018-09-02T22:15:52.320Z,3.07
2018-09-02T22:18:21.169Z,3.20
2018-09-02T22:20:50.033Z,3.60
2018-09-02T22:23:18.857Z,3.00
2018-09-02T22:25:48.044Z,3.67
2018-09-02T22:28:17.268Z,3.10
2018-09-02T22:30:46.390Z,3.00
2018-09-02T22:33:15.457Z,2.90
2018-09-02T22:35:45.289Z,4.53
2018-09-02T22:38:14.821Z,3.53
2018-09-02T22:40:44.052Z,3.43
2018-09-02T22:43:13.853Z,3.23
2018-09-02T22:45:42.725Z,4.07
2018-09-02T22:48:11.585Z,3.20
2018-09-02T22:50:40.456Z,3.10
2018-09-02T22:53:09.308Z,2.77
2018-09-02T22:55:38.189Z,5.67
2018-09-02T22:58:07.245Z,2.77
2018-09-02T23:00:36.182Z,3.53
2018-09-02T23:03:05.085Z,5.13
2018-09-02T23:05:34.002Z,4.93
2018-09-02T23:08:05.785Z,3.53
2018-09-02T23:10:34.669Z,3.90
2018-09-02T23:13:04.415Z,2.97
2018-09-02T23:15:33.250Z,5.20
2018-09-02T23:18:02.107Z,3.87
2018-09-02T23:20:30.947Z,6.60
2018-09-02T23:22:59.826Z,4.27
2018-09-02T23:25:28.458Z,3.00
2018-09-02T23:27:57.192Z,4.60
2018-09-02T23:30:26.073Z,4.70
2018-09-02T23:32:59.872Z,3.47
2018-09-02T23:35:28.775Z,5.50
2018-09-02T23:37:57.658Z,3.67
2018-09-02T23:40:27.101Z,5.20
2018-09-02T23:42:56.188Z,3.40
2018-09-02T23:45:25.145Z,4.10
2018-09-02T23:47:53.973Z,4.40
2018-09-02T23:50:22.848Z,3.22
2018-09-02T23:52:51.689Z,4.80
2018-09-02T23:55:20.538Z,3.47
2018-09-02T23:57:49.411Z,3.77
